• Join FlightAware (Why Join?)
  • Login
  • US Flag 
 
09:44PM EST


 

Airport Tracker/Info


-or-


 

Live Flight TrackerFlight Track Log ✈ CES5700 ✈ 14-Jul-2013 ✈ ZHLY / LYA - ZBAA / PEK

Flight Track Log - Related Links

Times and Time Zones

All times are in EDT time to prevent confusion due to time zone crossing. See the CES5700 flight status page for this flight to view local times or setup timezone preferences in your user account.

Time Position Orientation Groundspeed Altitude Reporting Facility
EDT Latitude Longitude Course Direction KTS MPH feet Rate Location/Type
04:25AM 35.8515 113.2044 31° Northeast  Level Estimated
04:26AM 35.9306 113.2635 31° Northeast  Level Estimated
04:27AM 36.0097 113.3228 31° Northeast  Level Estimated
04:28AM 36.0887 113.3822 31° Northeast  Level Estimated
04:29AM 36.1677 113.4417 31° Northeast  Level Estimated
04:30AM 36.2467 113.5013 31° Northeast  Level Estimated
04:31AM 36.3257 113.5611 31° Northeast  Level Estimated
04:32AM 36.4046 113.6209 31° Northeast  Level Estimated
04:33AM 36.4835 113.6809 31° Northeast  Level Estimated
04:34AM 36.5624 113.7411 31° Northeast  Level Estimated
04:35AM 36.6412 113.8013 32° Northeast  Level Estimated
04:36AM 36.7200 113.8616 32° Northeast  Level Estimated
04:37AM 36.7988 113.9221 32° Northeast  Level Estimated
04:38AM 36.8775 113.9827 32° Northeast  Level Estimated
04:39AM 36.9562 114.0435 32° Northeast  Level Estimated
04:40AM 37.0349 114.1043 32° Northeast  Level Estimated
04:41AM 37.1135 114.1653 32° Northeast  Level Estimated
04:42AM 37.1922 114.2265 32° Northeast  Level Estimated
04:43AM 37.2708 114.2877 32° Northeast  Level Estimated
04:44AM 37.3493 114.3491 32° Northeast  Level Estimated
04:45AM 37.4278 114.4106 32° Northeast  Level Estimated
04:46AM 37.5063 114.4722 32° Northeast  Level Estimated
04:47AM 37.5848 114.5340 32° Northeast  Level Estimated
04:48AM 37.6632 114.5958 32° Northeast  Level Estimated
04:49AM 37.7416 114.6579 32° Northeast  Level Estimated
04:50AM 37.8200 114.7200 32° Northeast  Level Estimated
04:51AM 37.8983 114.7823 32° Northeast  Level Estimated
04:52AM 37.9766 114.8447 32° Northeast  Level Estimated
04:53AM 38.0549 114.9073 32° Northeast  Level Estimated
04:54AM 38.1331 114.9699 32° Northeast  Level Estimated
04:55AM 38.2113 115.0328 32° Northeast  Level Estimated
04:56AM 38.2895 115.0957 32° Northeast  Level Estimated
04:57AM 38.3676 115.1588 32° Northeast  Level Estimated
04:58AM 38.4457 115.2220 32° Northeast  Level Estimated
04:59AM 38.5238 115.2854 32° Northeast  Level Estimated
05:00AM 38.6018 115.3489 32° Northeast  Level Estimated
05:01AM 38.6798 115.4125 32° Northeast  Level Estimated
05:02AM 38.7577 115.4763 33° Northeast  Level Estimated
05:03AM 38.8357 115.5402 33° Northeast  Level Estimated
05:04AM 38.9135 115.6043 33° Northeast  Level Estimated
05:04AM 39.1500 116.4060 33° Northeast 326 375 13,700  Level FlightAware
05:05AM 38.9914 115.6685 33° Northeast  Level Estimated
05:05AM 39.2260 116.4100 North 324 373 12,400  Level FlightAware
05:05AM 39.2830 116.4140 North 298 343 12,000 -540 Descending FlightAware
05:06AM 39.3510 116.4180 North 296 341 11,600 -900 Descending FlightAware
05:07AM 39.3990 116.4220 North 295 339 10,800 -1,320 Descending FlightAware
05:07AM 39.4120 116.4290 23° Northeast 295 339 10,600 -1,500 Descending FlightAware
05:07AM 39.4320 116.4540 44° Northeast 291 335 10,100 -840 Descending FlightAware
05:08AM 39.4640 116.5080 52° Northeast 293 337 9,700 -420 Descending FlightAware
05:08AM 39.4730 116.5220 50° Northeast 293 337 9,700  Level FlightAware
05:09AM 39.4980 116.5640 52° Northeast 293 337 9,700  Level FlightAware
05:09AM 39.5150 116.5920 52° Northeast 293 337 9,700  Level FlightAware
05:09AM 39.5240 116.6070 52° Northeast 293 337 9,700 -1,020 Level FlightAware
05:11AM 39.6840 116.6350 358° North 7,100 -1,140 Descending FlightAware
05:12AM 39.7556 116.5977 358° North  Level Estimated
05:12AM 39.7160 116.6300 353° North 225 259 7,000  Level FlightAware
05:14AM 39.8450 116.6100 353° North 206 237 4,700 -1,140 Descending FlightAware
05:14AM 39.8720 116.6060 354° North 201 231 4,100 -1,200 Descending FlightAware
05:15AM 39.8820 116.6040 351° North 201 231 3,900 -1,080 Descending FlightAware
05:15AM 39.9050 116.6010 354° North 196 226 3,500 -1,020 Descending FlightAware
05:16AM 39.9320 116.5970 354° North 188 216 3,000 -660 Descending FlightAware
05:16AM 39.9590 116.5920 352° North 188 216 2,800 -900 Descending FlightAware
05:17AM 39.9930 116.5870 354° North 151 174 1,800 -1,200 Descending FlightAware
05:17AM 40.0140 116.5840 354° North 151 174 1,400 -480 Descending FlightAware
05:18AM 40.0290 116.5820 354° North 151 174 1,400  Level FlightAware
05:20AM 40.0801 116.5846 North  Level Estimated
05:21AM 40.0801 116.5846 288° West  Level Estimated
05:22AM 40.0801 116.5846 288° West  Level Estimated
05:23AM 40.0801 116.5846 288° West  Level Estimated
05:24AM 40.0801 116.5846 288° West  Level Estimated